sensor_id;sensor_type;location;lat;lon;timestamp;P1;durP1;ratioP1;P2;durP2;ratioP2
12206;SDS011;6166;42.806;23.408;2022-08-01T00:01:32;10.90;;;10.00;;
12206;SDS011;6166;42.806;23.408;2022-08-01T00:03:59;10.68;;;9.88;;
12206;SDS011;6166;42.806;23.408;2022-08-01T00:06:26;11.10;;;10.20;;
12206;SDS011;6166;42.806;23.408;2022-08-01T00:08:53;9.53;;;8.73;;
12206;SDS011;6166;42.806;23.408;2022-08-01T00:11:20;9.20;;;8.40;;
12206;SDS011;6166;42.806;23.408;2022-08-01T00:13:47;10.77;;;9.87;;
12206;SDS011;6166;42.806;23.408;2022-08-01T00:16:14;11.23;;;10.17;;
12206;SDS011;6166;42.806;23.408;2022-08-01T00:18:43;9.67;;;8.97;;
12206;SDS011;6166;42.806;23.408;2022-08-01T00:21:10;9.95;;;9.00;;
12206;SDS011;6166;42.806;23.408;2022-08-01T00:23:36;10.03;;;9.23;;
12206;SDS011;6166;42.806;23.408;2022-08-01T00:26:03;9.57;;;8.77;;
12206;SDS011;6166;42.806;23.408;2022-08-01T00:28:30;9.03;;;8.33;;
12206;SDS011;6166;42.806;23.408;2022-08-01T00:30:56;8.97;;;8.17;;
12206;SDS011;6166;42.806;23.408;2022-08-01T00:33:23;9.37;;;8.50;;
12206;SDS011;6166;42.806;23.408;2022-08-01T00:35:51;8.77;;;8.05;;
12206;SDS011;6166;42.806;23.408;2022-08-01T00:38:18;8.70;;;8.00;;
12206;SDS011;6166;42.806;23.408;2022-08-01T00:40:45;8.17;;;7.40;;
12206;SDS011;6166;42.806;23.408;2022-08-01T00:43:12;9.07;;;8.23;;
12206;SDS011;6166;42.806;23.408;2022-08-01T00:45:38;8.53;;;7.83;;
12206;SDS011;6166;42.806;23.408;2022-08-01T00:48:05;8.53;;;7.83;;
12206;SDS011;6166;42.806;23.408;2022-08-01T00:50:32;8.60;;;7.90;;
12206;SDS011;6166;42.806;23.408;2022-08-01T00:53:00;7.87;;;7.30;;
12206;SDS011;6166;42.806;23.408;2022-08-01T00:55:28;8.27;;;7.60;;
12206;SDS011;6166;42.806;23.408;2022-08-01T00:57:55;8.07;;;7.37;;
12206;SDS011;6166;42.806;23.408;2022-08-01T01:00:22;8.67;;;7.80;;
12206;SDS011;6166;42.806;23.408;2022-08-01T01:02:49;8.10;;;7.43;;
12206;SDS011;6166;42.806;23.408;2022-08-01T01:05:16;7.90;;;7.30;;
12206;SDS011;6166;42.806;23.408;2022-08-01T01:07:44;10.13;;;7.37;;
12206;SDS011;6166;42.806;23.408;2022-08-01T01:10:20;8.77;;;7.23;;
12206;SDS011;6166;42.806;23.408;2022-08-01T01:12:50;8.47;;;7.67;;
12206;SDS011;6166;42.806;23.408;2022-08-01T01:15:26;8.37;;;7.67;;
12206;SDS011;6166;42.806;23.408;2022-08-01T01:17:57;8.40;;;7.60;;
12206;SDS011;6166;42.806;23.408;2022-08-01T01:20:33;8.10;;;7.40;;
12206;SDS011;6166;42.806;23.408;2022-08-01T01:23:12;7.67;;;7.07;;
12206;SDS011;6166;42.806;23.408;2022-08-01T01:25:54;7.67;;;6.70;;
12206;SDS011;6166;42.806;23.408;2022-08-01T01:28:35;6.90;;;6.30;;
12206;SDS011;6166;42.806;23.408;2022-08-01T01:31:13;7.13;;;6.63;;
12206;SDS011;6166;42.806;23.408;2022-08-01T01:33:44;7.03;;;6.37;;
12206;SDS011;6166;42.806;23.408;2022-08-01T01:36:12;6.97;;;6.47;;
12206;SDS011;6166;42.806;23.408;2022-08-01T01:38:41;7.30;;;6.60;;
12206;SDS011;6166;42.806;23.408;2022-08-01T01:41:10;8.47;;;6.70;;
12206;SDS011;6166;42.806;23.408;2022-08-01T01:43:39;6.70;;;6.20;;
12206;SDS011;6166;42.806;23.408;2022-08-01T01:46:06;7.17;;;6.47;;
12206;SDS011;6166;42.806;23.408;2022-08-01T01:48:36;6.97;;;6.40;;
12206;SDS011;6166;42.806;23.408;2022-08-01T01:51:05;7.67;;;6.77;;
12206;SDS011;6166;42.806;23.408;2022-08-01T01:53:33;8.37;;;6.70;;
12206;SDS011;6166;42.806;23.408;2022-08-01T01:56:02;9.80;;;7.10;;
12206;SDS011;6166;42.806;23.408;2022-08-01T01:58:30;6.63;;;6.03;;
12206;SDS011;6166;42.806;23.408;2022-08-01T02:00:59;7.13;;;6.53;;
12206;SDS011;6166;42.806;23.408;2022-08-01T02:03:27;6.93;;;6.33;;
12206;SDS011;6166;42.806;23.408;2022-08-01T02:05:57;7.53;;;7.00;;
12206;SDS011;6166;42.806;23.408;2022-08-01T02:08:27;7.03;;;6.53;;
12206;SDS011;6166;42.806;23.408;2022-08-01T02:10:55;6.53;;;6.03;;
12206;SDS011;6166;42.806;23.408;2022-08-01T02:13:42;6.70;;;6.10;;
12206;SDS011;6166;42.806;23.408;2022-08-01T02:16:09;7.30;;;6.70;;
12206;SDS011;6166;42.806;23.408;2022-08-01T02:18:37;7.30;;;6.70;;
12206;SDS011;6166;42.806;23.408;2022-08-01T02:21:08;6.60;;;6.10;;
12206;SDS011;6166;42.806;23.408;2022-08-01T02:23:38;7.07;;;6.47;;
12206;SDS011;6166;42.806;23.408;2022-08-01T02:26:07;7.13;;;6.50;;
12206;SDS011;6166;42.806;23.408;2022-08-01T02:28:38;6.93;;;6.43;;
12206;SDS011;6166;42.806;23.408;2022-08-01T02:31:10;7.77;;;6.63;;
12206;SDS011;6166;42.806;23.408;2022-08-01T02:33:40;7.63;;;7.03;;
12206;SDS011;6166;42.806;23.408;2022-08-01T02:36:11;7.17;;;6.43;;
12206;SDS011;6166;42.806;23.408;2022-08-01T02:38:40;6.93;;;6.40;;
12206;SDS011;6166;42.806;23.408;2022-08-01T02:41:10;8.47;;;6.50;;
12206;SDS011;6166;42.806;23.408;2022-08-01T02:43:42;6.90;;;6.30;;
12206;SDS011;6166;42.806;23.408;2022-08-01T02:46:14;7.17;;;6.47;;
12206;SDS011;6166;42.806;23.408;2022-08-01T02:48:47;6.50;;;6.00;;
12206;SDS011;6166;42.806;23.408;2022-08-01T02:51:18;7.07;;;6.33;;
12206;SDS011;6166;42.806;23.408;2022-08-01T02:53:46;7.27;;;6.67;;
12206;SDS011;6166;42.806;23.408;2022-08-01T02:56:14;7.30;;;6.70;;
12206;SDS011;6166;42.806;23.408;2022-08-01T02:58:43;7.43;;;6.73;;
12206;SDS011;6166;42.806;23.408;2022-08-01T03:01:12;7.23;;;6.63;;
12206;SDS011;6166;42.806;23.408;2022-08-01T03:03:41;6.33;;;5.83;;
12206;SDS011;6166;42.806;23.408;2022-08-01T03:06:08;6.20;;;5.80;;
12206;SDS011;6166;42.806;23.408;2022-08-01T03:08:36;6.87;;;6.30;;
12206;SDS011;6166;42.806;23.408;2022-08-01T03:11:04;6.43;;;5.87;;
12206;SDS011;6166;42.806;23.408;2022-08-01T03:13:33;7.07;;;6.33;;
12206;SDS011;6166;42.806;23.408;2022-08-01T03:16:00;7.67;;;6.43;;
12206;SDS011;6166;42.806;23.408;2022-08-01T03:18:28;6.80;;;6.30;;
12206;SDS011;6166;42.806;23.408;2022-08-01T03:20:56;6.20;;;5.60;;
12206;SDS011;6166;42.806;23.408;2022-08-01T03:23:25;7.07;;;5.60;;
12206;SDS011;6166;42.806;23.408;2022-08-01T03:25:55;6.90;;;6.40;;
12206;SDS011;6166;42.806;23.408;2022-08-01T03:28:23;6.23;;;5.80;;
12206;SDS011;6166;42.806;23.408;2022-08-01T03:30:51;6.30;;;5.70;;
12206;SDS011;6166;42.806;23.408;2022-08-01T03:33:19;6.53;;;6.03;;
12206;SDS011;6166;42.806;23.408;2022-08-01T03:35:47;5.60;;;5.20;;
12206;SDS011;6166;42.806;23.408;2022-08-01T03:38:19;6.73;;;6.13;;
12206;SDS011;6166;42.806;23.408;2022-08-01T03:40:49;5.60;;;5.17;;
12206;SDS011;6166;42.806;23.408;2022-08-01T03:43:22;6.53;;;5.90;;
12206;SDS011;6166;42.806;23.408;2022-08-01T03:45:58;5.77;;;5.27;;
12206;SDS011;6166;42.806;23.408;2022-08-01T03:48:32;5.57;;;5.17;;
12206;SDS011;6166;42.806;23.408;2022-08-01T03:51:03;7.07;;;5.63;;
12206;SDS011;6166;42.806;23.408;2022-08-01T03:53:32;6.30;;;5.37;;
12206;SDS011;6166;42.806;23.408;2022-08-01T03:56:00;5.77;;;4.57;;
12206;SDS011;6166;42.806;23.408;2022-08-01T03:58:31;5.90;;;5.40;;
12206;SDS011;6166;42.806;23.408;2022-08-01T04:00:59;5.10;;;4.60;;
12206;SDS011;6166;42.806;23.408;2022-08-01T04:03:26;5.40;;;5.00;;
12206;SDS011;6166;42.806;23.408;2022-08-01T04:05:54;5.70;;;5.20;;
12206;SDS011;6166;42.806;23.408;2022-08-01T04:08:21;5.50;;;5.00;;
12206;SDS011;6166;42.806;23.408;2022-08-01T04:10:48;5.67;;;4.30;;
12206;SDS011;6166;42.806;23.408;2022-08-01T04:13:15;5.23;;;4.73;;
12206;SDS011;6166;42.806;23.408;2022-08-01T04:15:43;5.07;;;4.57;;
12206;SDS011;6166;42.806;23.408;2022-08-01T04:18:09;5.03;;;4.63;;
12206;SDS011;6166;42.806;23.408;2022-08-01T04:20:36;5.03;;;4.53;;
12206;SDS011;6166;42.806;23.408;2022-08-01T04:23:03;4.60;;;4.30;;
12206;SDS011;6166;42.806;23.408;2022-08-01T04:25:32;5.43;;;4.53;;
12206;SDS011;6166;42.806;23.408;2022-08-01T04:28:00;7.70;;;4.70;;
12206;SDS011;6166;42.806;23.408;2022-08-01T04:30:30;4.57;;;4.27;;
12206;SDS011;6166;42.806;23.408;2022-08-01T04:33:01;4.50;;;3.93;;
12206;SDS011;6166;42.806;23.408;2022-08-01T04:35:32;4.10;;;3.80;;
12206;SDS011;6166;42.806;23.408;2022-08-01T04:38:01;4.43;;;3.80;;
12206;SDS011;6166;42.806;23.408;2022-08-01T04:40:29;4.33;;;3.93;;
12206;SDS011;6166;42.806;23.408;2022-08-01T04:42:58;4.70;;;4.30;;
12206;SDS011;6166;42.806;23.408;2022-08-01T04:45:25;5.10;;;4.70;;
12206;SDS011;6166;42.806;23.408;2022-08-01T04:47:52;4.50;;;4.20;;
12206;SDS011;6166;42.806;23.408;2022-08-01T04:50:21;4.43;;;4.03;;
12206;SDS011;6166;42.806;23.408;2022-08-01T04:52:49;5.63;;;4.83;;
12206;SDS011;6166;42.806;23.408;2022-08-01T04:55:16;5.00;;;4.50;;
12206;SDS011;6166;42.806;23.408;2022-08-01T04:57:43;4.53;;;4.13;;
12206;SDS011;6166;42.806;23.408;2022-08-01T05:00:12;10.10;;;8.53;;
12206;SDS011;6166;42.806;23.408;2022-08-01T05:02:41;8.23;;;6.60;;
12206;SDS011;6166;42.806;23.408;2022-08-01T05:05:08;7.10;;;4.00;;
12206;SDS011;6166;42.806;23.408;2022-08-01T05:07:37;5.80;;;3.87;;
12206;SDS011;6166;42.806;23.408;2022-08-01T05:10:04;3.97;;;3.67;;
12206;SDS011;6166;42.806;23.408;2022-08-01T05:12:31;4.45;;;4.13;;
12206;SDS011;6166;42.806;23.408;2022-08-01T05:14:58;4.73;;;4.10;;
12206;SDS011;6166;42.806;23.408;2022-08-01T05:17:25;4.37;;;4.07;;
12206;SDS011;6166;42.806;23.408;2022-08-01T05:19:51;4.57;;;4.18;;
12206;SDS011;6166;42.806;23.408;2022-08-01T05:22:18;4.93;;;4.53;;
12206;SDS011;6166;42.806;23.408;2022-08-01T05:24:46;4.53;;;4.20;;
12206;SDS011;6166;42.806;23.408;2022-08-01T05:27:13;7.03;;;5.70;;
12206;SDS011;6166;42.806;23.408;2022-08-01T05:29:41;6.88;;;6.18;;
12206;SDS011;6166;42.806;23.408;2022-08-01T05:32:08;6.20;;;5.63;;
12206;SDS011;6166;42.806;23.408;2022-08-01T05:34:35;6.33;;;4.67;;
12206;SDS011;6166;42.806;23.408;2022-08-01T05:37:05;5.80;;;4.07;;
12206;SDS011;6166;42.806;23.408;2022-08-01T05:39:32;5.47;;;3.60;;
12206;SDS011;6166;42.806;23.408;2022-08-01T05:42:00;4.03;;;3.63;;
12206;SDS011;6166;42.806;23.408;2022-08-01T05:44:27;3.97;;;3.67;;
12206;SDS011;6166;42.806;23.408;2022-08-01T05:46:54;4.87;;;3.73;;
12206;SDS011;6166;42.806;23.408;2022-08-01T05:49:20;4.20;;;3.80;;
12206;SDS011;6166;42.806;23.408;2022-08-01T05:51:47;4.43;;;4.03;;
12206;SDS011;6166;42.806;23.408;2022-08-01T05:54:14;5.65;;;4.00;;
12206;SDS011;6166;42.806;23.408;2022-08-01T05:56:41;3.30;;;2.97;;
12206;SDS011;6166;42.806;23.408;2022-08-01T05:59:15;2.83;;;2.63;;
12206;SDS011;6166;42.806;23.408;2022-08-01T06:01:56;3.43;;;3.13;;
12206;SDS011;6166;42.806;23.408;2022-08-01T06:04:22;2.75;;;2.55;;
12206;SDS011;6166;42.806;23.408;2022-08-01T06:06:49;3.33;;;3.03;;
12206;SDS011;6166;42.806;23.408;2022-08-01T06:09:16;3.67;;;2.75;;
12206;SDS011;6166;42.806;23.408;2022-08-01T06:11:43;3.83;;;3.53;;
12206;SDS011;6166;42.806;23.408;2022-08-01T06:14:13;4.13;;;2.80;;
12206;SDS011;6166;42.806;23.408;2022-08-01T06:16:40;2.88;;;2.67;;
12206;SDS011;6166;42.806;23.408;2022-08-01T06:19:06;7.38;;;2.92;;
12206;SDS011;6166;42.806;23.408;2022-08-01T06:21:33;3.17;;;2.97;;
12206;SDS011;6166;42.806;23.408;2022-08-01T06:24:00;2.88;;;2.65;;
12206;SDS011;6166;42.806;23.408;2022-08-01T06:26:27;3.10;;;2.90;;
12206;SDS011;6166;42.806;23.408;2022-08-01T06:28:53;2.28;;;2.08;;
12206;SDS011;6166;42.806;23.408;2022-08-01T06:31:21;1.95;;;1.73;;
12206;SDS011;6166;42.806;23.408;2022-08-01T06:33:48;4.05;;;2.75;;
12206;SDS011;6166;42.806;23.408;2022-08-01T06:36:15;3.17;;;2.97;;
12206;SDS011;6166;42.806;23.408;2022-08-01T06:38:42;3.45;;;2.85;;
12206;SDS011;6166;42.806;23.408;2022-08-01T06:41:08;3.88;;;2.88;;
12206;SDS011;6166;42.806;23.408;2022-08-01T06:43:40;5.93;;;2.90;;
12206;SDS011;6166;42.806;23.408;2022-08-01T06:46:07;2.53;;;2.33;;
12206;SDS011;6166;42.806;23.408;2022-08-01T06:48:38;3.08;;;2.78;;
12206;SDS011;6166;42.806;23.408;2022-08-01T06:51:07;3.20;;;2.10;;
12206;SDS011;6166;42.806;23.408;2022-08-01T06:53:34;2.42;;;2.15;;
12206;SDS011;6166;42.806;23.408;2022-08-01T06:56:02;1.85;;;1.75;;
12206;SDS011;6166;42.806;23.408;2022-08-01T06:58:33;1.70;;;1.60;;
12206;SDS011;6166;42.806;23.408;2022-08-01T07:01:01;1.83;;;1.73;;
12206;SDS011;6166;42.806;23.408;2022-08-01T07:03:36;1.85;;;1.75;;
12206;SDS011;6166;42.806;23.408;2022-08-01T07:06:07;1.88;;;1.77;;
12206;SDS011;6166;42.806;23.408;2022-08-01T07:08:34;2.13;;;1.95;;
12206;SDS011;6166;42.806;23.408;2022-08-01T07:11:01;2.50;;;2.40;;
12206;SDS011;6166;42.806;23.408;2022-08-01T07:13:28;2.35;;;2.20;;
12206;SDS011;6166;42.806;23.408;2022-08-01T07:15:56;2.17;;;2.08;;
12206;SDS011;6166;42.806;23.408;2022-08-01T07:18:24;3.20;;;2.70;;
12206;SDS011;6166;42.806;23.408;2022-08-01T07:21:02;2.10;;;2.00;;
12206;SDS011;6166;42.806;23.408;2022-08-01T07:23:29;2.92;;;2.42;;
12206;SDS011;6166;42.806;23.408;2022-08-01T07:25:55;2.55;;;2.20;;
12206;SDS011;6166;42.806;23.408;2022-08-01T07:28:22;2.67;;;2.45;;
12206;SDS011;6166;42.806;23.408;2022-08-01T07:30:49;2.95;;;2.65;;
12206;SDS011;6166;42.806;23.408;2022-08-01T07:33:16;2.22;;;2.10;;
12206;SDS011;6166;42.806;23.408;2022-08-01T07:35:44;3.17;;;2.97;;
12206;SDS011;6166;42.806;23.408;2022-08-01T07:38:12;2.47;;;2.38;;
12206;SDS011;6166;42.806;23.408;2022-08-01T07:40:40;3.00;;;2.70;;
12206;SDS011;6166;42.806;23.408;2022-08-01T07:43:07;2.50;;;2.35;;
12206;SDS011;6166;42.806;23.408;2022-08-01T07:45:33;2.75;;;2.35;;
12206;SDS011;6166;42.806;23.408;2022-08-01T07:48:01;2.45;;;2.30;;
12206;SDS011;6166;42.806;23.408;2022-08-01T07:50:29;2.80;;;2.70;;
12206;SDS011;6166;42.806;23.408;2022-08-01T07:52:56;2.97;;;2.70;;
12206;SDS011;6166;42.806;23.408;2022-08-01T07:55:24;2.65;;;2.50;;
12206;SDS011;6166;42.806;23.408;2022-08-01T07:57:53;2.67;;;2.55;;
12206;SDS011;6166;42.806;23.408;2022-08-01T08:00:20;2.60;;;2.40;;
12206;SDS011;6166;42.806;23.408;2022-08-01T08:02:46;2.63;;;2.40;;
12206;SDS011;6166;42.806;23.408;2022-08-01T08:05:13;2.15;;;2.00;;
12206;SDS011;6166;42.806;23.408;2022-08-01T08:07:40;2.53;;;2.03;;
12206;SDS011;6166;42.806;23.408;2022-08-01T08:10:07;1.80;;;1.70;;
12206;SDS011;6166;42.806;23.408;2022-08-01T08:12:35;2.25;;;2.10;;
12206;SDS011;6166;42.806;23.408;2022-08-01T08:15:03;2.13;;;1.92;;
12206;SDS011;6166;42.806;23.408;2022-08-01T08:17:31;2.15;;;2.05;;
12206;SDS011;6166;42.806;23.408;2022-08-01T08:19:58;3.83;;;2.33;;
12206;SDS011;6166;42.806;23.408;2022-08-01T08:22:25;2.30;;;2.05;;
12206;SDS011;6166;42.806;23.408;2022-08-01T08:24:53;3.45;;;2.10;;
12206;SDS011;6166;42.806;23.408;2022-08-01T08:27:24;2.33;;;2.13;;
12206;SDS011;6166;42.806;23.408;2022-08-01T08:29:52;2.00;;;1.90;;
12206;SDS011;6166;42.806;23.408;2022-08-01T08:32:19;3.13;;;2.88;;
12206;SDS011;6166;42.806;23.408;2022-08-01T08:34:45;1.92;;;1.83;;
12206;SDS011;6166;42.806;23.408;2022-08-01T08:37:12;2.33;;;2.10;;
12206;SDS011;6166;42.806;23.408;2022-08-01T08:39:39;3.67;;;2.85;;
12206;SDS011;6166;42.806;23.408;2022-08-01T08:42:10;3.63;;;2.08;;
12206;SDS011;6166;42.806;23.408;2022-08-01T08:44:37;2.30;;;2.20;;
12206;SDS011;6166;42.806;23.408;2022-08-01T08:47:07;2.30;;;2.20;;
12206;SDS011;6166;42.806;23.408;2022-08-01T08:49:36;2.83;;;2.15;;
12206;SDS011;6166;42.806;23.408;2022-08-01T08:52:03;1.98;;;1.88;;
12206;SDS011;6166;42.806;23.408;2022-08-01T08:54:31;2.92;;;2.40;;
12206;SDS011;6166;42.806;23.408;2022-08-01T08:56:59;2.63;;;2.10;;
12206;SDS011;6166;42.806;23.408;2022-08-01T08:59:27;2.60;;;2.40;;
12206;SDS011;6166;42.806;23.408;2022-08-01T09:01:54;2.83;;;2.38;;
12206;SDS011;6166;42.806;23.408;2022-08-01T09:04:23;2.85;;;2.33;;
12206;SDS011;6166;42.806;23.408;2022-08-01T09:06:50;2.53;;;2.42;;
12206;SDS011;6166;42.806;23.408;2022-08-01T09:09:17;2.08;;;1.98;;
12206;SDS011;6166;42.806;23.408;2022-08-01T09:11:44;2.67;;;2.50;;
12206;SDS011;6166;42.806;23.408;2022-08-01T09:14:12;2.65;;;2.45;;
12206;SDS011;6166;42.806;23.408;2022-08-01T09:16:42;2.50;;;2.30;;
12206;SDS011;6166;42.806;23.408;2022-08-01T09:19:11;2.88;;;2.47;;
12206;SDS011;6166;42.806;23.408;2022-08-01T09:21:53;2.58;;;2.40;;
12206;SDS011;6166;42.806;23.408;2022-08-01T09:24:23;2.60;;;2.40;;
12206;SDS011;6166;42.806;23.408;2022-08-01T09:26:53;2.30;;;2.20;;
12206;SDS011;6166;42.806;23.408;2022-08-01T09:29:22;2.60;;;2.42;;
12206;SDS011;6166;42.806;23.408;2022-08-01T09:31:53;2.50;;;2.40;;
12206;SDS011;6166;42.806;23.408;2022-08-01T09:34:24;1.95;;;1.85;;
12206;SDS011;6166;42.806;23.408;2022-08-01T09:36:53;5.85;;;2.83;;
12206;SDS011;6166;42.806;23.408;2022-08-01T09:39:22;3.28;;;3.00;;
12206;SDS011;6166;42.806;23.408;2022-08-01T09:41:49;5.90;;;5.10;;
12206;SDS011;6166;42.806;23.408;2022-08-01T09:44:16;3.63;;;3.25;;
12206;SDS011;6166;42.806;23.408;2022-08-01T09:46:52;2.92;;;2.72;;
12206;SDS011;6166;42.806;23.408;2022-08-01T09:49:30;4.53;;;2.85;;
12206;SDS011;6166;42.806;23.408;2022-08-01T09:52:09;4.03;;;3.63;;
12206;SDS011;6166;42.806;23.408;2022-08-01T09:54:38;8.30;;;5.22;;
12206;SDS011;6166;42.806;23.408;2022-08-01T09:57:07;8.35;;;5.38;;
12206;SDS011;6166;42.806;23.408;2022-08-01T09:59:39;3.92;;;3.17;;
12206;SDS011;6166;42.806;23.408;2022-08-01T10:02:12;2.67;;;2.58;;
12206;SDS011;6166;42.806;23.408;2022-08-01T10:04:48;2.85;;;2.65;;
12206;SDS011;6166;42.806;23.408;2022-08-01T10:07:17;2.63;;;2.42;;
12206;SDS011;6166;42.806;23.408;2022-08-01T10:09:45;1.75;;;1.67;;
12206;SDS011;6166;42.806;23.408;2022-08-01T10:12:13;2.10;;;2.00;;
12206;SDS011;6166;42.806;23.408;2022-08-01T10:14:42;2.75;;;2.58;;
12206;SDS011;6166;42.806;23.408;2022-08-01T10:17:12;2.95;;;2.67;;
12206;SDS011;6166;42.806;23.408;2022-08-01T10:19:40;3.00;;;2.60;;
12206;SDS011;6166;42.806;23.408;2022-08-01T10:22:08;2.30;;;2.20;;
12206;SDS011;6166;42.806;23.408;2022-08-01T10:24:38;4.20;;;2.10;;
12206;SDS011;6166;42.806;23.408;2022-08-01T10:27:15;4.25;;;3.88;;
12206;SDS011;6166;42.806;23.408;2022-08-01T10:29:46;2.10;;;2.00;;
12206;SDS011;6166;42.806;23.408;2022-08-01T10:32:16;3.88;;;3.58;;
12206;SDS011;6166;42.806;23.408;2022-08-01T10:34:43;5.72;;;3.45;;
12206;SDS011;6166;42.806;23.408;2022-08-01T10:37:11;3.15;;;2.80;;
12206;SDS011;6166;42.806;23.408;2022-08-01T10:39:40;3.90;;;2.58;;
12206;SDS011;6166;42.806;23.408;2022-08-01T10:42:09;2.97;;;2.47;;
12206;SDS011;6166;42.806;23.408;2022-08-01T10:44:37;2.75;;;2.63;;
12206;SDS011;6166;42.806;23.408;2022-08-01T10:47:06;3.45;;;3.20;;
12206;SDS011;6166;42.806;23.408;2022-08-01T10:49:37;2.80;;;2.60;;
12206;SDS011;6166;42.806;23.408;2022-08-01T10:52:13;2.85;;;2.60;;
12206;SDS011;6166;42.806;23.408;2022-08-01T10:54:42;2.33;;;2.22;;
12206;SDS011;6166;42.806;23.408;2022-08-01T10:57:09;2.45;;;2.20;;
12206;SDS011;6166;42.806;23.408;2022-08-01T10:59:47;3.50;;;2.80;;
12206;SDS011;6166;42.806;23.408;2022-08-01T11:02:25;10.07;;;2.10;;
12206;SDS011;6166;42.806;23.408;2022-08-01T11:04:55;2.50;;;2.40;;
12206;SDS011;6166;42.806;23.408;2022-08-01T11:07:24;2.60;;;2.50;;
12206;SDS011;6166;42.806;23.408;2022-08-01T11:10:09;3.38;;;3.17;;
12206;SDS011;6166;42.806;23.408;2022-08-01T11:12:46;2.70;;;2.50;;
12206;SDS011;6166;42.806;23.408;2022-08-01T11:15:19;3.17;;;2.97;;
12206;SDS011;6166;42.806;23.408;2022-08-01T11:17:56;3.35;;;3.10;;
12206;SDS011;6166;42.806;23.408;2022-08-01T11:20:27;3.35;;;2.38;;
12206;SDS011;6166;42.806;23.408;2022-08-01T11:28:42;3.72;;;3.53;;
12206;SDS011;6166;42.806;23.408;2022-08-01T11:31:27;2.92;;;2.80;;
12206;SDS011;6166;42.806;23.408;2022-08-01T11:33:55;3.40;;;3.10;;
12206;SDS011;6166;42.806;23.408;2022-08-01T11:36:22;3.50;;;3.30;;
12206;SDS011;6166;42.806;23.408;2022-08-01T11:41:44;3.47;;;3.17;;
12206;SDS011;6166;42.806;23.408;2022-08-01T11:44:13;3.85;;;3.55;;
12206;SDS011;6166;42.806;23.408;2022-08-01T11:46:49;4.47;;;2.22;;
12206;SDS011;6166;42.806;23.408;2022-08-01T11:49:33;3.63;;;3.42;;
12206;SDS011;6166;42.806;23.408;2022-08-01T11:52:11;4.15;;;3.83;;
12206;SDS011;6166;42.806;23.408;2022-08-01T11:54:40;3.17;;;2.97;;
12206;SDS011;6166;42.806;23.408;2022-08-01T11:57:10;3.45;;;3.25;;
12206;SDS011;6166;42.806;23.408;2022-08-01T11:59:38;4.05;;;3.78;;
12206;SDS011;6166;42.806;23.408;2022-08-01T12:02:21;3.25;;;3.05;;
12206;SDS011;6166;42.806;23.408;2022-08-01T12:04:50;4.10;;;3.80;;
12206;SDS011;6166;42.806;23.408;2022-08-01T12:07:20;3.42;;;3.22;;
12206;SDS011;6166;42.806;23.408;2022-08-01T12:09:48;3.35;;;3.15;;
12206;SDS011;6166;42.806;23.408;2022-08-01T12:12:23;3.40;;;3.20;;
12206;SDS011;6166;42.806;23.408;2022-08-01T12:14:52;3.72;;;3.42;;
12206;SDS011;6166;42.806;23.408;2022-08-01T12:17:28;3.53;;;3.33;;
12206;SDS011;6166;42.806;23.408;2022-08-01T12:20:14;3.70;;;3.50;;
12206;SDS011;6166;42.806;23.408;2022-08-01T12:22:45;3.13;;;2.92;;
12206;SDS011;6166;42.806;23.408;2022-08-01T12:25:13;3.42;;;3.22;;
12206;SDS011;6166;42.806;23.408;2022-08-01T12:27:42;3.70;;;3.50;;
12206;SDS011;6166;42.806;23.408;2022-08-01T12:30:10;3.83;;;3.20;;
12206;SDS011;6166;42.806;23.408;2022-08-01T12:32:39;3.70;;;3.40;;
12206;SDS011;6166;42.806;23.408;2022-08-01T12:35:07;3.42;;;3.22;;
12206;SDS011;6166;42.806;23.408;2022-08-01T12:37:36;3.83;;;3.35;;
12206;SDS011;6166;42.806;23.408;2022-08-01T12:40:10;3.67;;;3.25;;
12206;SDS011;6166;42.806;23.408;2022-08-01T12:42:39;2.85;;;2.75;;
12206;SDS011;6166;42.806;23.408;2022-08-01T12:45:09;3.20;;;3.00;;
12206;SDS011;6166;42.806;23.408;2022-08-01T12:47:38;3.10;;;2.90;;
12206;SDS011;6166;42.806;23.408;2022-08-01T12:50:05;3.03;;;2.90;;
12206;SDS011;6166;42.806;23.408;2022-08-01T12:52:34;3.45;;;3.25;;
12206;SDS011;6166;42.806;23.408;2022-08-01T12:55:05;3.10;;;2.90;;
12206;SDS011;6166;42.806;23.408;2022-08-01T12:57:34;2.88;;;2.78;;
12206;SDS011;6166;42.806;23.408;2022-08-01T13:00:07;3.33;;;2.80;;
12206;SDS011;6166;42.806;23.408;2022-08-01T13:02:36;3.33;;;3.10;;
12206;SDS011;6166;42.806;23.408;2022-08-01T13:05:04;3.40;;;3.20;;
12206;SDS011;6166;42.806;23.408;2022-08-01T13:07:40;3.30;;;2.88;;
12206;SDS011;6166;42.806;23.408;2022-08-01T13:10:10;3.13;;;2.95;;
12206;SDS011;6166;42.806;23.408;2022-08-01T13:12:40;4.32;;;3.17;;
12206;SDS011;6166;42.806;23.408;2022-08-01T13:15:22;3.22;;;3.03;;
12206;SDS011;6166;42.806;23.408;2022-08-01T13:17:59;3.33;;;3.22;;
12206;SDS011;6166;42.806;23.408;2022-08-01T13:20:32;3.05;;;2.83;;
12206;SDS011;6166;42.806;23.408;2022-08-01T13:23:10;3.10;;;3.00;;
12206;SDS011;6166;42.806;23.408;2022-08-01T13:25:52;3.20;;;3.00;;
12206;SDS011;6166;42.806;23.408;2022-08-01T13:28:22;2.90;;;2.70;;
12206;SDS011;6166;42.806;23.408;2022-08-01T13:30:52;3.15;;;2.95;;
12206;SDS011;6166;42.806;23.408;2022-08-01T13:33:25;3.50;;;3.22;;
12206;SDS011;6166;42.806;23.408;2022-08-01T13:35:55;3.30;;;3.00;;
12206;SDS011;6166;42.806;23.408;2022-08-01T13:38:22;3.80;;;3.50;;
12206;SDS011;6166;42.806;23.408;2022-08-01T13:41:03;3.42;;;3.10;;
12206;SDS011;6166;42.806;23.408;2022-08-01T13:43:30;3.33;;;2.95;;
12206;SDS011;6166;42.806;23.408;2022-08-01T13:46:01;3.10;;;2.90;;
12206;SDS011;6166;42.806;23.408;2022-08-01T13:48:29;3.60;;;3.40;;
12206;SDS011;6166;42.806;23.408;2022-08-01T13:50:56;3.05;;;2.95;;
12206;SDS011;6166;42.806;23.408;2022-08-01T13:53:23;3.63;;;3.33;;
12206;SDS011;6166;42.806;23.408;2022-08-01T13:55:50;3.65;;;2.63;;
12206;SDS011;6166;42.806;23.408;2022-08-01T13:58:16;3.92;;;3.63;;
12206;SDS011;6166;42.806;23.408;2022-08-01T14:00:43;3.33;;;3.03;;
12206;SDS011;6166;42.806;23.408;2022-08-01T14:03:11;5.22;;;3.28;;
12206;SDS011;6166;42.806;23.408;2022-08-01T14:05:38;3.72;;;3.53;;
12206;SDS011;6166;42.806;23.408;2022-08-01T14:08:05;3.22;;;3.03;;
12206;SDS011;6166;42.806;23.408;2022-08-01T14:10:32;3.22;;;3.03;;
12206;SDS011;6166;42.806;23.408;2022-08-01T14:12:59;3.28;;;3.08;;
12206;SDS011;6166;42.806;23.408;2022-08-01T14:15:26;4.65;;;3.35;;
12206;SDS011;6166;42.806;23.408;2022-08-01T14:17:52;4.95;;;4.63;;
12206;SDS011;6166;42.806;23.408;2022-08-01T14:20:20;5.07;;;4.72;;
12206;SDS011;6166;42.806;23.408;2022-08-01T14:22:47;4.07;;;3.78;;
12206;SDS011;6166;42.806;23.408;2022-08-01T14:25:14;4.13;;;3.70;;
12206;SDS011;6166;42.806;23.408;2022-08-01T14:27:43;3.75;;;3.47;;
12206;SDS011;6166;42.806;23.408;2022-08-01T14:30:10;4.50;;;3.80;;
12206;SDS011;6166;42.806;23.408;2022-08-01T14:32:40;4.28;;;3.88;;
12206;SDS011;6166;42.806;23.408;2022-08-01T14:35:07;3.30;;;2.95;;
12206;SDS011;6166;42.806;23.408;2022-08-01T14:37:35;3.22;;;3.03;;
12206;SDS011;6166;42.806;23.408;2022-08-01T14:40:05;3.25;;;3.05;;
12206;SDS011;6166;42.806;23.408;2022-08-01T14:42:34;3.10;;;2.85;;
12206;SDS011;6166;42.806;23.408;2022-08-01T14:45:01;4.05;;;3.75;;
12206;SDS011;6166;42.806;23.408;2022-08-01T14:47:31;5.05;;;4.43;;
12206;SDS011;6166;42.806;23.408;2022-08-01T14:49:57;2.75;;;2.65;;
12206;SDS011;6166;42.806;23.408;2022-08-01T14:52:24;5.00;;;3.13;;
12206;SDS011;6166;42.806;23.408;2022-08-01T14:54:52;7.95;;;3.10;;
12206;SDS011;6166;42.806;23.408;2022-08-01T14:57:19;3.15;;;2.95;;
12206;SDS011;6166;42.806;23.408;2022-08-01T14:59:46;3.65;;;3.33;;
12206;SDS011;6166;42.806;23.408;2022-08-01T15:02:13;4.18;;;3.47;;
12206;SDS011;6166;42.806;23.408;2022-08-01T15:04:42;8.55;;;7.65;;
12206;SDS011;6166;42.806;23.408;2022-08-01T15:07:09;10.30;;;9.02;;
12206;SDS011;6166;42.806;23.408;2022-08-01T15:09:36;5.15;;;4.65;;